sensor_id;sensor_type;location;lat;lon;timestamp;P1;durP1;ratioP1;P2;durP2;ratioP2
35990;SDS011;22064;42.672;23.282;2022-07-03T00:00:10;19.70;;;11.35;;
35990;SDS011;22064;42.672;23.282;2022-07-03T00:02:38;23.10;;;11.30;;
35990;SDS011;22064;42.672;23.282;2022-07-03T00:05:04;20.33;;;11.38;;
35990;SDS011;22064;42.672;23.282;2022-07-03T00:07:30;22.92;;;12.10;;
35990;SDS011;22064;42.672;23.282;2022-07-03T00:09:56;18.60;;;11.15;;
35990;SDS011;22064;42.672;23.282;2022-07-03T00:12:21;19.80;;;11.82;;
35990;SDS011;22064;42.672;23.282;2022-07-03T00:14:47;21.80;;;12.18;;
35990;SDS011;22064;42.672;23.282;2022-07-03T00:17:15;23.90;;;12.55;;
35990;SDS011;22064;42.672;23.282;2022-07-03T00:19:40;22.67;;;13.10;;
35990;SDS011;22064;42.672;23.282;2022-07-03T00:22:07;25.23;;;13.48;;
35990;SDS011;22064;42.672;23.282;2022-07-03T00:24:39;23.23;;;13.15;;
35990;SDS011;22064;42.672;23.282;2022-07-03T00:27:20;21.95;;;13.25;;
35990;SDS011;22064;42.672;23.282;2022-07-03T00:29:49;24.55;;;14.10;;
35990;SDS011;22064;42.672;23.282;2022-07-03T00:32:18;22.50;;;12.95;;
35990;SDS011;22064;42.672;23.282;2022-07-03T00:34:47;24.58;;;14.18;;
35990;SDS011;22064;42.672;23.282;2022-07-03T00:37:16;24.77;;;13.70;;
35990;SDS011;22064;42.672;23.282;2022-07-03T00:39:42;25.15;;;13.60;;
35990;SDS011;22064;42.672;23.282;2022-07-03T00:42:08;23.58;;;14.10;;
35990;SDS011;22064;42.672;23.282;2022-07-03T00:44:43;24.42;;;14.38;;
35990;SDS011;22064;42.672;23.282;2022-07-03T00:47:20;26.73;;;13.70;;
35990;SDS011;22064;42.672;23.282;2022-07-03T00:49:47;21.33;;;13.07;;
35990;SDS011;22064;42.672;23.282;2022-07-03T00:52:15;24.30;;;13.68;;
35990;SDS011;22064;42.672;23.282;2022-07-03T00:54:44;23.92;;;14.38;;
35990;SDS011;22064;42.672;23.282;2022-07-03T00:57:16;23.48;;;13.50;;
35990;SDS011;22064;42.672;23.282;2022-07-03T00:59:42;23.42;;;14.23;;
35990;SDS011;22064;42.672;23.282;2022-07-03T01:02:08;26.83;;;14.82;;
35990;SDS011;22064;42.672;23.282;2022-07-03T01:08:00;27.63;;;16.55;;
35990;SDS011;22064;42.672;23.282;2022-07-03T01:25:12;28.40;;;16.90;;
35990;SDS011;22064;42.672;23.282;2022-07-03T01:27:48;27.98;;;17.35;;
35990;SDS011;22064;42.672;23.282;2022-07-03T01:30:37;28.20;;;16.67;;
35990;SDS011;22064;42.672;23.282;2022-07-03T01:33:18;31.02;;;17.05;;
35990;SDS011;22064;42.672;23.282;2022-07-03T01:38:38;29.23;;;16.27;;
35990;SDS011;22064;42.672;23.282;2022-07-03T01:41:09;27.95;;;16.92;;
35990;SDS011;22064;42.672;23.282;2022-07-03T01:43:39;27.80;;;16.45;;
35990;SDS011;22064;42.672;23.282;2022-07-03T01:46:13;26.23;;;16.20;;
35990;SDS011;22064;42.672;23.282;2022-07-03T01:48:42;28.90;;;16.48;;
35990;SDS011;22064;42.672;23.282;2022-07-03T01:51:09;27.23;;;16.17;;
35990;SDS011;22064;42.672;23.282;2022-07-03T01:53:39;28.08;;;16.60;;
35990;SDS011;22064;42.672;23.282;2022-07-03T01:56:11;27.60;;;17.52;;
35990;SDS011;22064;42.672;23.282;2022-07-03T01:58:37;26.48;;;16.23;;
35990;SDS011;22064;42.672;23.282;2022-07-03T02:03:32;28.13;;;16.42;;
35990;SDS011;22064;42.672;23.282;2022-07-03T02:06:02;28.08;;;15.98;;
35990;SDS011;22064;42.672;23.282;2022-07-03T02:11:17;24.85;;;15.52;;
35990;SDS011;22064;42.672;23.282;2022-07-03T02:16:20;28.42;;;14.88;;
35990;SDS011;22064;42.672;23.282;2022-07-03T02:18:49;27.92;;;15.85;;
35990;SDS011;22064;42.672;23.282;2022-07-03T02:21:22;25.88;;;15.52;;
35990;SDS011;22064;42.672;23.282;2022-07-03T02:26:33;25.88;;;15.20;;
35990;SDS011;22064;42.672;23.282;2022-07-03T02:31:33;26.13;;;15.57;;
35990;SDS011;22064;42.672;23.282;2022-07-03T02:34:03;26.67;;;15.15;;
35990;SDS011;22064;42.672;23.282;2022-07-03T02:36:31;27.83;;;15.40;;
35990;SDS011;22064;42.672;23.282;2022-07-03T02:39:00;25.92;;;16.52;;
35990;SDS011;22064;42.672;23.282;2022-07-03T02:41:34;27.67;;;16.48;;
35990;SDS011;22064;42.672;23.282;2022-07-03T02:44:10;26.50;;;15.85;;
35990;SDS011;22064;42.672;23.282;2022-07-03T03:00:58;26.30;;;15.18;;
35990;SDS011;22064;42.672;23.282;2022-07-03T03:03:31;28.13;;;15.48;;
35990;SDS011;22064;42.672;23.282;2022-07-03T03:06:04;27.40;;;15.82;;
35990;SDS011;22064;42.672;23.282;2022-07-03T03:11:22;26.42;;;16.05;;
35990;SDS011;22064;42.672;23.282;2022-07-03T03:14:00;26.42;;;15.32;;
35990;SDS011;22064;42.672;23.282;2022-07-03T03:16:30;25.48;;;15.77;;
35990;SDS011;22064;42.672;23.282;2022-07-03T03:18:56;24.38;;;14.85;;
35990;SDS011;22064;42.672;23.282;2022-07-03T03:21:22;25.90;;;15.40;;
35990;SDS011;22064;42.672;23.282;2022-07-03T03:23:50;27.85;;;15.68;;
35990;SDS011;22064;42.672;23.282;2022-07-03T03:26:18;26.27;;;16.08;;
35990;SDS011;22064;42.672;23.282;2022-07-03T03:28:45;24.42;;;14.73;;
35990;SDS011;22064;42.672;23.282;2022-07-03T03:31:11;24.23;;;15.70;;
35990;SDS011;22064;42.672;23.282;2022-07-03T03:33:41;25.67;;;15.45;;
35990;SDS011;22064;42.672;23.282;2022-07-03T03:36:08;26.40;;;15.15;;
35990;SDS011;22064;42.672;23.282;2022-07-03T03:38:36;24.98;;;14.98;;
35990;SDS011;22064;42.672;23.282;2022-07-03T03:41:03;23.75;;;13.75;;
35990;SDS011;22064;42.672;23.282;2022-07-03T03:43:29;23.70;;;13.07;;
35990;SDS011;22064;42.672;23.282;2022-07-03T03:45:56;21.67;;;13.52;;
35990;SDS011;22064;42.672;23.282;2022-07-03T03:48:22;27.00;;;14.18;;
35990;SDS011;22064;42.672;23.282;2022-07-03T03:50:48;24.40;;;13.50;;
35990;SDS011;22064;42.672;23.282;2022-07-03T03:53:13;24.02;;;13.50;;
35990;SDS011;22064;42.672;23.282;2022-07-03T03:55:53;28.02;;;14.15;;
35990;SDS011;22064;42.672;23.282;2022-07-03T03:58:24;23.15;;;13.63;;
35990;SDS011;22064;42.672;23.282;2022-07-03T04:00:50;24.70;;;15.02;;
35990;SDS011;22064;42.672;23.282;2022-07-03T04:03:18;27.83;;;14.70;;
35990;SDS011;22064;42.672;23.282;2022-07-03T04:05:43;24.77;;;14.50;;
35990;SDS011;22064;42.672;23.282;2022-07-03T04:08:09;21.88;;;13.25;;
35990;SDS011;22064;42.672;23.282;2022-07-03T04:10:35;24.80;;;14.98;;
35990;SDS011;22064;42.672;23.282;2022-07-03T04:13:01;26.42;;;15.25;;
35990;SDS011;22064;42.672;23.282;2022-07-03T04:15:26;25.10;;;15.63;;
35990;SDS011;22064;42.672;23.282;2022-07-03T04:17:52;25.80;;;14.60;;
35990;SDS011;22064;42.672;23.282;2022-07-03T04:20:18;24.48;;;14.70;;
35990;SDS011;22064;42.672;23.282;2022-07-03T04:22:44;25.98;;;15.00;;
35990;SDS011;22064;42.672;23.282;2022-07-03T04:25:09;24.92;;;14.88;;
35990;SDS011;22064;42.672;23.282;2022-07-03T04:27:35;26.38;;;14.60;;
35990;SDS011;22064;42.672;23.282;2022-07-03T04:30:01;27.35;;;15.75;;
35990;SDS011;22064;42.672;23.282;2022-07-03T04:32:26;23.35;;;15.23;;
35990;SDS011;22064;42.672;23.282;2022-07-03T04:34:52;24.40;;;14.50;;
35990;SDS011;22064;42.672;23.282;2022-07-03T04:37:17;28.10;;;15.73;;
35990;SDS011;22064;42.672;23.282;2022-07-03T04:39:43;23.30;;;14.50;;
35990;SDS011;22064;42.672;23.282;2022-07-03T04:42:08;27.45;;;14.93;;
35990;SDS011;22064;42.672;23.282;2022-07-03T04:44:34;23.73;;;13.50;;
35990;SDS011;22064;42.672;23.282;2022-07-03T04:46:59;23.23;;;14.27;;
35990;SDS011;22064;42.672;23.282;2022-07-03T04:49:26;27.65;;;15.40;;
35990;SDS011;22064;42.672;23.282;2022-07-03T04:51:51;25.55;;;15.02;;
35990;SDS011;22064;42.672;23.282;2022-07-03T04:54:18;24.77;;;15.02;;
35990;SDS011;22064;42.672;23.282;2022-07-03T04:56:44;21.77;;;13.93;;
35990;SDS011;22064;42.672;23.282;2022-07-03T04:59:09;24.85;;;14.13;;
35990;SDS011;22064;42.672;23.282;2022-07-03T05:01:35;23.83;;;13.38;;
35990;SDS011;22064;42.672;23.282;2022-07-03T05:04:00;22.80;;;13.82;;
35990;SDS011;22064;42.672;23.282;2022-07-03T05:06:26;24.75;;;14.05;;
35990;SDS011;22064;42.672;23.282;2022-07-03T05:08:51;24.75;;;14.88;;
35990;SDS011;22064;42.672;23.282;2022-07-03T05:11:17;23.05;;;13.48;;
35990;SDS011;22064;42.672;23.282;2022-07-03T05:13:43;23.50;;;13.32;;
35990;SDS011;22064;42.672;23.282;2022-07-03T05:16:08;24.20;;;13.68;;
35990;SDS011;22064;42.672;23.282;2022-07-03T05:18:34;22.15;;;13.57;;
35990;SDS011;22064;42.672;23.282;2022-07-03T05:21:00;22.90;;;14.27;;
35990;SDS011;22064;42.672;23.282;2022-07-03T05:23:27;24.75;;;14.07;;
35990;SDS011;22064;42.672;23.282;2022-07-03T05:25:53;21.67;;;13.23;;
35990;SDS011;22064;42.672;23.282;2022-07-03T05:28:20;21.35;;;12.45;;
35990;SDS011;22064;42.672;23.282;2022-07-03T05:30:46;21.63;;;12.23;;
35990;SDS011;22064;42.672;23.282;2022-07-03T05:33:12;23.33;;;13.73;;
35990;SDS011;22064;42.672;23.282;2022-07-03T05:35:37;23.35;;;13.05;;
35990;SDS011;22064;42.672;23.282;2022-07-03T05:38:03;21.10;;;12.07;;
35990;SDS011;22064;42.672;23.282;2022-07-03T05:40:28;19.20;;;11.77;;
35990;SDS011;22064;42.672;23.282;2022-07-03T05:42:54;18.40;;;12.00;;
35990;SDS011;22064;42.672;23.282;2022-07-03T05:45:19;22.92;;;12.43;;
35990;SDS011;22064;42.672;23.282;2022-07-03T05:47:45;22.52;;;12.98;;
35990;SDS011;22064;42.672;23.282;2022-07-03T05:50:11;22.92;;;13.23;;
35990;SDS011;22064;42.672;23.282;2022-07-03T05:52:36;23.02;;;12.88;;
35990;SDS011;22064;42.672;23.282;2022-07-03T05:55:02;24.50;;;13.60;;
35990;SDS011;22064;42.672;23.282;2022-07-03T05:57:28;21.08;;;12.98;;
35990;SDS011;22064;42.672;23.282;2022-07-03T05:59:54;20.52;;;11.32;;
35990;SDS011;22064;42.672;23.282;2022-07-03T06:02:19;20.00;;;12.32;;
35990;SDS011;22064;42.672;23.282;2022-07-03T06:04:45;22.88;;;12.10;;
35990;SDS011;22064;42.672;23.282;2022-07-03T06:07:11;21.30;;;12.20;;
35990;SDS011;22064;42.672;23.282;2022-07-03T06:09:36;21.70;;;12.05;;
35990;SDS011;22064;42.672;23.282;2022-07-03T06:12:02;19.52;;;11.65;;
35990;SDS011;22064;42.672;23.282;2022-07-03T06:14:28;21.02;;;12.20;;
35990;SDS011;22064;42.672;23.282;2022-07-03T06:16:53;23.48;;;11.93;;
35990;SDS011;22064;42.672;23.282;2022-07-03T06:19:19;19.58;;;11.57;;
35990;SDS011;22064;42.672;23.282;2022-07-03T06:21:44;19.55;;;11.57;;
35990;SDS011;22064;42.672;23.282;2022-07-03T06:24:10;17.80;;;10.98;;
35990;SDS011;22064;42.672;23.282;2022-07-03T06:26:36;18.25;;;10.48;;
35990;SDS011;22064;42.672;23.282;2022-07-03T06:29:01;17.20;;;10.55;;
35990;SDS011;22064;42.672;23.282;2022-07-03T06:31:27;20.48;;;11.18;;
35990;SDS011;22064;42.672;23.282;2022-07-03T06:33:52;16.73;;;10.52;;
35990;SDS011;22064;42.672;23.282;2022-07-03T06:36:18;18.75;;;11.13;;
35990;SDS011;22064;42.672;23.282;2022-07-03T06:38:44;17.77;;;10.75;;
35990;SDS011;22064;42.672;23.282;2022-07-03T06:41:09;18.73;;;10.48;;
35990;SDS011;22064;42.672;23.282;2022-07-03T06:43:35;19.38;;;10.90;;
35990;SDS011;22064;42.672;23.282;2022-07-03T06:46:00;17.33;;;10.38;;
35990;SDS011;22064;42.672;23.282;2022-07-03T06:48:26;16.38;;;10.32;;
35990;SDS011;22064;42.672;23.282;2022-07-03T06:50:51;21.20;;;10.82;;
35990;SDS011;22064;42.672;23.282;2022-07-03T06:53:17;18.20;;;10.75;;
35990;SDS011;22064;42.672;23.282;2022-07-03T06:55:42;19.73;;;11.52;;
35990;SDS011;22064;42.672;23.282;2022-07-03T06:58:08;16.95;;;10.63;;
35990;SDS011;22064;42.672;23.282;2022-07-03T07:00:34;17.15;;;10.32;;
35990;SDS011;22064;42.672;23.282;2022-07-03T07:02:59;22.83;;;11.05;;
35990;SDS011;22064;42.672;23.282;2022-07-03T07:05:25;16.60;;;9.95;;
35990;SDS011;22064;42.672;23.282;2022-07-03T07:07:50;15.95;;;9.73;;
35990;SDS011;22064;42.672;23.282;2022-07-03T07:10:16;17.13;;;10.38;;
35990;SDS011;22064;42.672;23.282;2022-07-03T07:12:41;18.30;;;10.77;;
35990;SDS011;22064;42.672;23.282;2022-07-03T07:15:07;16.55;;;10.02;;
35990;SDS011;22064;42.672;23.282;2022-07-03T07:17:33;17.40;;;9.90;;
35990;SDS011;22064;42.672;23.282;2022-07-03T07:19:58;18.88;;;10.52;;
35990;SDS011;22064;42.672;23.282;2022-07-03T07:22:24;18.48;;;10.82;;
35990;SDS011;22064;42.672;23.282;2022-07-03T07:24:50;18.48;;;11.23;;
35990;SDS011;22064;42.672;23.282;2022-07-03T07:27:16;16.70;;;10.10;;
35990;SDS011;22064;42.672;23.282;2022-07-03T07:29:42;16.92;;;10.00;;
35990;SDS011;22064;42.672;23.282;2022-07-03T07:32:07;17.08;;;10.40;;
35990;SDS011;22064;42.672;23.282;2022-07-03T07:34:33;18.55;;;9.98;;
35990;SDS011;22064;42.672;23.282;2022-07-03T07:36:58;17.48;;;10.65;;
35990;SDS011;22064;42.672;23.282;2022-07-03T07:39:24;18.02;;;10.48;;
35990;SDS011;22064;42.672;23.282;2022-07-03T07:41:49;18.45;;;10.60;;
35990;SDS011;22064;42.672;23.282;2022-07-03T07:44:15;18.73;;;11.13;;
35990;SDS011;22064;42.672;23.282;2022-07-03T07:46:40;16.30;;;10.43;;
35990;SDS011;22064;42.672;23.282;2022-07-03T07:49:06;17.13;;;9.52;;
35990;SDS011;22064;42.672;23.282;2022-07-03T07:51:32;18.75;;;10.00;;
35990;SDS011;22064;42.672;23.282;2022-07-03T07:53:57;19.98;;;10.32;;
35990;SDS011;22064;42.672;23.282;2022-07-03T07:56:24;16.63;;;10.65;;
35990;SDS011;22064;42.672;23.282;2022-07-03T07:58:51;16.75;;;10.57;;
35990;SDS011;22064;42.672;23.282;2022-07-03T08:01:17;19.77;;;10.70;;
35990;SDS011;22064;42.672;23.282;2022-07-03T08:04:04;18.08;;;10.45;;
35990;SDS011;22064;42.672;23.282;2022-07-03T08:06:48;20.15;;;10.27;;
35990;SDS011;22064;42.672;23.282;2022-07-03T08:09:14;17.02;;;9.75;;
35990;SDS011;22064;42.672;23.282;2022-07-03T08:11:40;18.40;;;9.77;;
35990;SDS011;22064;42.672;23.282;2022-07-03T08:14:06;19.15;;;9.98;;
35990;SDS011;22064;42.672;23.282;2022-07-03T08:16:33;15.32;;;8.98;;
35990;SDS011;22064;42.672;23.282;2022-07-03T08:18:59;16.38;;;9.13;;
35990;SDS011;22064;42.672;23.282;2022-07-03T08:21:26;15.68;;;9.55;;
35990;SDS011;22064;42.672;23.282;2022-07-03T08:23:51;15.95;;;9.50;;
35990;SDS011;22064;42.672;23.282;2022-07-03T08:26:18;16.85;;;9.13;;
35990;SDS011;22064;42.672;23.282;2022-07-03T08:28:43;13.15;;;8.63;;
35990;SDS011;22064;42.672;23.282;2022-07-03T08:31:09;13.13;;;8.40;;
35990;SDS011;22064;42.672;23.282;2022-07-03T08:33:34;14.38;;;8.70;;
35990;SDS011;22064;42.672;23.282;2022-07-03T08:36:00;15.15;;;9.40;;
35990;SDS011;22064;42.672;23.282;2022-07-03T08:38:27;13.55;;;8.80;;
35990;SDS011;22064;42.672;23.282;2022-07-03T08:40:57;14.05;;;8.73;;
35990;SDS011;22064;42.672;23.282;2022-07-03T08:43:24;14.35;;;8.10;;
35990;SDS011;22064;42.672;23.282;2022-07-03T08:45:49;13.15;;;8.35;;
35990;SDS011;22064;42.672;23.282;2022-07-03T08:48:15;13.45;;;8.23;;
35990;SDS011;22064;42.672;23.282;2022-07-03T08:50:43;13.77;;;8.10;;
35990;SDS011;22064;42.672;23.282;2022-07-03T08:53:10;13.25;;;8.05;;
35990;SDS011;22064;42.672;23.282;2022-07-03T08:55:36;13.93;;;8.27;;
35990;SDS011;22064;42.672;23.282;2022-07-03T08:58:02;14.60;;;7.97;;
35990;SDS011;22064;42.672;23.282;2022-07-03T09:00:30;11.80;;;7.40;;
35990;SDS011;22064;42.672;23.282;2022-07-03T09:02:57;12.45;;;7.53;;
35990;SDS011;22064;42.672;23.282;2022-07-03T09:05:25;16.02;;;8.45;;
35990;SDS011;22064;42.672;23.282;2022-07-03T09:07:50;14.70;;;7.88;;
35990;SDS011;22064;42.672;23.282;2022-07-03T09:10:18;13.10;;;8.15;;
35990;SDS011;22064;42.672;23.282;2022-07-03T09:12:45;11.68;;;7.32;;
35990;SDS011;22064;42.672;23.282;2022-07-03T09:15:11;13.45;;;7.82;;
35990;SDS011;22064;42.672;23.282;2022-07-03T09:17:38;9.85;;;7.00;;
35990;SDS011;22064;42.672;23.282;2022-07-03T09:20:05;10.77;;;6.65;;
35990;SDS011;22064;42.672;23.282;2022-07-03T09:22:36;13.85;;;6.75;;
35990;SDS011;22064;42.672;23.282;2022-07-03T09:27:32;10.30;;;6.32;;
35990;SDS011;22064;42.672;23.282;2022-07-03T09:29:59;9.98;;;6.43;;
35990;SDS011;22064;42.672;23.282;2022-07-03T09:32:30;13.95;;;6.55;;
35990;SDS011;22064;42.672;23.282;2022-07-03T09:38:02;8.30;;;6.00;;
35990;SDS011;22064;42.672;23.282;2022-07-03T09:40:50;9.02;;;6.10;;
35990;SDS011;22064;42.672;23.282;2022-07-03T09:43:26;10.65;;;5.85;;
35990;SDS011;22064;42.672;23.282;2022-07-03T09:45:58;13.73;;;5.88;;
35990;SDS011;22064;42.672;23.282;2022-07-03T09:56:19;8.13;;;5.95;;
35990;SDS011;22064;42.672;23.282;2022-07-03T10:01:45;8.52;;;6.05;;
35990;SDS011;22064;42.672;23.282;2022-07-03T10:04:18;10.82;;;5.80;;
35990;SDS011;22064;42.672;23.282;2022-07-03T10:09:19;7.05;;;5.47;;
35990;SDS011;22064;42.672;23.282;2022-07-03T10:11:47;10.75;;;6.15;;
35990;SDS011;22064;42.672;23.282;2022-07-03T10:14:14;9.90;;;5.55;;
35990;SDS011;22064;42.672;23.282;2022-07-03T10:16:42;8.70;;;5.80;;
35990;SDS011;22064;42.672;23.282;2022-07-03T10:19:09;7.40;;;5.13;;
35990;SDS011;22064;42.672;23.282;2022-07-03T10:21:45;7.43;;;5.00;;
35990;SDS011;22064;42.672;23.282;2022-07-03T10:24:15;6.40;;;5.30;;
35990;SDS011;22064;42.672;23.282;2022-07-03T10:26:42;7.03;;;4.80;;
35990;SDS011;22064;42.672;23.282;2022-07-03T10:29:09;7.65;;;4.57;;
35990;SDS011;22064;42.672;23.282;2022-07-03T10:31:36;6.88;;;5.13;;
35990;SDS011;22064;42.672;23.282;2022-07-03T10:34:04;9.23;;;5.50;;
35990;SDS011;22064;42.672;23.282;2022-07-03T10:36:31;9.65;;;5.53;;
35990;SDS011;22064;42.672;23.282;2022-07-03T10:39:02;7.45;;;4.82;;
35990;SDS011;22064;42.672;23.282;2022-07-03T10:41:35;5.32;;;4.72;;
35990;SDS011;22064;42.672;23.282;2022-07-03T10:44:23;6.15;;;4.63;;
35990;SDS011;22064;42.672;23.282;2022-07-03T10:47:53;6.93;;;4.82;;
35990;SDS011;22064;42.672;23.282;2022-07-03T10:50:11;7.60;;;4.55;;
35990;SDS011;22064;42.672;23.282;2022-07-03T10:52:47;5.03;;;4.38;;
35990;SDS011;22064;42.672;23.282;2022-07-03T10:55:14;6.45;;;4.60;;
35990;SDS011;22064;42.672;23.282;2022-07-03T10:57:41;5.95;;;4.50;;
35990;SDS011;22064;42.672;23.282;2022-07-03T11:00:11;5.40;;;4.22;;
35990;SDS011;22064;42.672;23.282;2022-07-03T11:02:39;8.40;;;4.38;;
35990;SDS011;22064;42.672;23.282;2022-07-03T11:05:11;7.47;;;4.47;;
35990;SDS011;22064;42.672;23.282;2022-07-03T11:26:26;9.15;;;4.88;;
35990;SDS011;22064;42.672;23.282;2022-07-03T11:28:52;8.07;;;4.90;;
35990;SDS011;22064;42.672;23.282;2022-07-03T11:31:19;6.88;;;4.63;;
35990;SDS011;22064;42.672;23.282;2022-07-03T11:33:49;8.60;;;5.00;;
35990;SDS011;22064;42.672;23.282;2022-07-03T11:41:29;9.98;;;4.95;;
35990;SDS011;22064;42.672;23.282;2022-07-03T11:43:56;9.40;;;5.63;;
35990;SDS011;22064;42.672;23.282;2022-07-03T11:46:27;6.72;;;4.90;;
35990;SDS011;22064;42.672;23.282;2022-07-03T11:51:39;5.53;;;4.45;;
35990;SDS011;22064;42.672;23.282;2022-07-03T11:54:09;7.32;;;4.63;;
35990;SDS011;22064;42.672;23.282;2022-07-03T11:56:35;6.15;;;4.65;;
35990;SDS011;22064;42.672;23.282;2022-07-03T11:59:03;5.32;;;4.55;;
35990;SDS011;22064;42.672;23.282;2022-07-03T12:01:31;8.47;;;4.67;;
35990;SDS011;22064;42.672;23.282;2022-07-03T12:06:33;7.97;;;5.00;;
35990;SDS011;22064;42.672;23.282;2022-07-03T12:09:42;8.25;;;5.60;;
35990;SDS011;22064;42.672;23.282;2022-07-03T12:17:08;7.68;;;4.95;;
35990;SDS011;22064;42.672;23.282;2022-07-03T12:19:50;6.53;;;5.28;;
35990;SDS011;22064;42.672;23.282;2022-07-03T12:22:29;10.05;;;5.53;;
35990;SDS011;22064;42.672;23.282;2022-07-03T12:27:26;7.05;;;5.13;;
35990;SDS011;22064;42.672;23.282;2022-07-03T12:29:53;7.47;;;5.22;;
35990;SDS011;22064;42.672;23.282;2022-07-03T12:32:19;10.25;;;5.40;;
35990;SDS011;22064;42.672;23.282;2022-07-03T12:34:45;6.80;;;5.00;;
35990;SDS011;22064;42.672;23.282;2022-07-03T12:37:11;7.40;;;5.20;;
35990;SDS011;22064;42.672;23.282;2022-07-03T12:39:55;7.35;;;5.45;;
35990;SDS011;22064;42.672;23.282;2022-07-03T12:42:22;6.60;;;5.13;;
35990;SDS011;22064;42.672;23.282;2022-07-03T12:44:54;8.65;;;5.30;;
35990;SDS011;22064;42.672;23.282;2022-07-03T12:47:28;7.22;;;5.07;;
35990;SDS011;22064;42.672;23.282;2022-07-03T12:49:58;8.55;;;5.15;;
35990;SDS011;22064;42.672;23.282;2022-07-03T12:52:29;8.68;;;5.50;;
35990;SDS011;22064;42.672;23.282;2022-07-03T12:54:56;8.40;;;5.35;;
35990;SDS011;22064;42.672;23.282;2022-07-03T12:57:22;12.55;;;5.70;;
35990;SDS011;22064;42.672;23.282;2022-07-03T13:00:16;8.02;;;5.35;;
35990;SDS011;22064;42.672;23.282;2022-07-03T13:02:44;6.55;;;4.90;;
35990;SDS011;22064;42.672;23.282;2022-07-03T13:05:14;6.15;;;4.65;;
35990;SDS011;22064;42.672;23.282;2022-07-03T13:07:52;7.15;;;5.22;;
35990;SDS011;22064;42.672;23.282;2022-07-03T13:10:20;5.60;;;5.00;;
35990;SDS011;22064;42.672;23.282;2022-07-03T13:15:15;6.50;;;5.13;;
35990;SDS011;22064;42.672;23.282;2022-07-03T13:17:59;6.63;;;4.78;;
35990;SDS011;22064;42.672;23.282;2022-07-03T13:22:59;6.80;;;4.70;;
35990;SDS011;22064;42.672;23.282;2022-07-03T13:25:29;8.07;;;5.70;;
35990;SDS011;22064;42.672;23.282;2022-07-03T13:28:05;9.73;;;4.90;;
35990;SDS011;22064;42.672;23.282;2022-07-03T13:30:31;6.03;;;4.63;;
35990;SDS011;22064;42.672;23.282;2022-07-03T13:32:58;10.50;;;5.47;;
35990;SDS011;22064;42.672;23.282;2022-07-03T13:35:23;9.07;;;5.28;;
35990;SDS011;22064;42.672;23.282;2022-07-03T13:37:49;7.63;;;5.30;;
35990;SDS011;22064;42.672;23.282;2022-07-03T13:40:14;7.28;;;5.10;;
35990;SDS011;22064;42.672;23.282;2022-07-03T13:42:40;6.47;;;5.40;;
35990;SDS011;22064;42.672;23.282;2022-07-03T13:45:06;10.45;;;5.60;;
35990;SDS011;22064;42.672;23.282;2022-07-03T13:47:32;9.18;;;5.55;;
35990;SDS011;22064;42.672;23.282;2022-07-03T13:49:57;9.93;;;5.95;;
35990;SDS011;22064;42.672;23.282;2022-07-03T13:52:23;12.32;;;5.90;;
35990;SDS011;22064;42.672;23.282;2022-07-03T13:54:48;7.85;;;5.75;;
35990;SDS011;22064;42.672;23.282;2022-07-03T13:57:14;9.38;;;5.88;;
35990;SDS011;22064;42.672;23.282;2022-07-03T13:59:40;8.80;;;5.82;;
35990;SDS011;22064;42.672;23.282;2022-07-03T14:02:05;7.88;;;6.25;;
35990;SDS011;22064;42.672;23.282;2022-07-03T14:04:31;9.05;;;6.00;;
35990;SDS011;22064;42.672;23.282;2022-07-03T14:06:57;9.05;;;5.95;;
35990;SDS011;22064;42.672;23.282;2022-07-03T14:09:23;8.35;;;5.80;;
35990;SDS011;22064;42.672;23.282;2022-07-03T14:11:52;9.68;;;5.95;;
35990;SDS011;22064;42.672;23.282;2022-07-03T14:14:18;7.55;;;5.82;;
35990;SDS011;22064;42.672;23.282;2022-07-03T14:16:43;8.63;;;6.05;;
35990;SDS011;22064;42.672;23.282;2022-07-03T14:19:09;9.07;;;5.85;;
35990;SDS011;22064;42.672;23.282;2022-07-03T14:21:35;9.38;;;6.20;;
35990;SDS011;22064;42.672;23.282;2022-07-03T14:24:00;11.38;;;6.00;;
35990;SDS011;22064;42.672;23.282;2022-07-03T14:26:26;8.82;;;5.78;;
35990;SDS011;22064;42.672;23.282;2022-07-03T14:29:10;8.07;;;5.80;;
35990;SDS011;22064;42.672;23.282;2022-07-03T14:31:59;9.18;;;5.45;;
35990;SDS011;22064;42.672;23.282;2022-07-03T14:34:43;8.00;;;6.07;;
35990;SDS011;22064;42.672;23.282;2022-07-03T14:37:08;10.07;;;5.47;;
35990;SDS011;22064;42.672;23.282;2022-07-03T14:39:34;8.52;;;5.60;;
35990;SDS011;22064;42.672;23.282;2022-07-03T14:42:00;9.57;;;6.07;;
35990;SDS011;22064;42.672;23.282;2022-07-03T14:44:28;9.57;;;5.95;;
35990;SDS011;22064;42.672;23.282;2022-07-03T14:46:54;10.32;;;5.40;;
35990;SDS011;22064;42.672;23.282;2022-07-03T14:49:20;8.93;;;6.00;;
35990;SDS011;22064;42.672;23.282;2022-07-03T14:51:46;9.85;;;6.07;;
35990;SDS011;22064;42.672;23.282;2022-07-03T14:54:16;12.93;;;6.22;;
35990;SDS011;22064;42.672;23.282;2022-07-03T14:56:47;8.90;;;5.90;;
35990;SDS011;22064;42.672;23.282;2022-07-03T14:59:20;12.25;;;6.18;;
35990;SDS011;22064;42.672;23.282;2022-07-03T15:02:15;10.70;;;6.50;;
35990;SDS011;22064;42.672;23.282;2022-07-03T15:05:18;9.35;;;6.22;;
35990;SDS011;22064;42.672;23.282;2022-07-03T15:07:41;7.28;;;5.63;;
35990;SDS011;22064;42.672;23.282;2022-07-03T15:12:56;9.47;;;5.73;;
35990;SDS011;22064;42.672;23.282;2022-07-03T15:15:22;9.02;;;6.20;;
35990;SDS011;22064;42.672;23.282;2022-07-03T15:17:50;9.98;;;5.85;;
35990;SDS011;22064;42.672;23.282;2022-07-03T15:20:17;11.57;;;6.03;;
35990;SDS011;22064;42.672;23.282;2022-07-03T15:22:44;10.35;;;5.95;;
35990;SDS011;22064;42.672;23.282;2022-07-03T15:25:11;9.80;;;6.03;;
35990;SDS011;22064;42.672;23.282;2022-07-03T15:27:38;10.85;;;5.95;;
35990;SDS011;22064;42.672;23.282;2022-07-03T15:30:05;9.30;;;5.68;;
35990;SDS011;22064;42.672;23.282;2022-07-03T15:34:59;10.52;;;5.78;;
35990;SDS011;22064;42.672;23.282;2022-07-03T15:40:28;8.10;;;5.57;;
35990;SDS011;22064;42.672;23.282;2022-07-03T15:48:31;13.68;;;6.32;;
35990;SDS011;22064;42.672;23.282;2022-07-03T15:53:59;8.95;;;6.40;;
35990;SDS011;22064;42.672;23.282;2022-07-03T15:56:30;10.25;;;6.78;;
35990;SDS011;22064;42.672;23.282;2022-07-03T15:59:03;9.18;;;6.00;;
35990;SDS011;22064;42.672;23.282;2022-07-03T16:01:37;9.43;;;5.88;;
35990;SDS011;22064;42.672;23.282;2022-07-03T16:04:33;10.15;;;6.40;;
35990;SDS011;22064;42.672;23.282;2022-07-03T16:07:08;10.23;;;6.13;;
35990;SDS011;22064;42.672;23.282;2022-07-03T16:09:36;11.55;;;6.50;;
35990;SDS011;22064;42.672;23.282;2022-07-03T16:12:02;9.52;;;5.78;;
35990;SDS011;22064;42.672;23.282;2022-07-03T16:14:30;9.45;;;6.05;;
35990;SDS011;22064;42.672;23.282;2022-07-03T16:16:58;9.25;;;5.65;;
35990;SDS011;22064;42.672;23.282;2022-07-03T16:19:30;13.38;;;6.10;;
35990;SDS011;22064;42.672;23.282;2022-07-03T16:21:56;10.68;;;6.05;;
35990;SDS011;22064;42.672;23.282;2022-07-03T16:24:25;10.48;;;6.00;;
35990;SDS011;22064;42.672;23.282;2022-07-03T16:26:51;8.18;;;6.18;;
35990;SDS011;22064;42.672;23.282;2022-07-03T16:29:18;13.05;;;6.20;;
35990;SDS011;22064;42.672;23.282;2022-07-03T16:31:44;11.30;;;5.93;;
35990;SDS011;22064;42.672;23.282;2022-07-03T16:34:15;9.40;;;5.93;;